createdAt,value
2023-03-21T10:02:49.255Z,18.45
2023-03-21T10:03:23.407Z,18.52
2023-03-21T10:03:55.929Z,18.66
2023-03-21T10:04:33.462Z,18.84
2023-03-21T10:05:05.701Z,18.94
2023-03-21T10:05:28.920Z,18.99
2023-03-21T10:06:13.646Z,19.10
2023-03-21T10:06:27.535Z,19.22
2023-03-21T10:09:20.764Z,19.21
2023-03-21T10:12:47.239Z,19.36
2023-03-21T10:12:53.292Z,19.62
2023-03-21T10:13:22.477Z,19.65
2023-03-21T10:13:52.121Z,19.68
2023-03-21T10:14:31.401Z,19.71
2023-03-21T10:14:57.495Z,19.73
2023-03-21T10:15:24.798Z,19.77
2023-03-21T10:15:57.182Z,19.77
2023-03-21T10:16:30.358Z,19.80
2023-03-21T10:16:53.392Z,19.83
2023-03-21T10:17:22.866Z,19.84
2023-03-21T10:18:00.260Z,19.86
2023-03-21T10:18:27.038Z,19.87
2023-03-21T10:18:54.046Z,19.88
2023-03-21T10:19:28.520Z,19.92
2023-03-21T10:20:00.754Z,19.94
2023-03-21T10:20:27.388Z,19.96
2023-03-21T10:20:58.202Z,19.98
2023-03-21T10:22:12.883Z,20.13
2023-03-21T10:22:18.968Z,20.13
2023-03-21T10:22:51.386Z,20.13
2023-03-21T10:23:23.771Z,20.11
2023-03-21T10:24:02.523Z,20.11
2023-03-21T10:24:17.672Z,20.13
2023-03-21T10:24:49.191Z,20.11
2023-03-21T10:25:25.326Z,20.16
2023-03-21T10:25:54.381Z,20.17
2023-03-21T10:26:20.424Z,20.17
2023-03-21T10:26:47.691Z,20.20
2023-03-21T10:27:19.779Z,20.20
2023-03-21T10:27:56.236Z,20.20
2023-03-21T10:30:56.005Z,20.23
2023-03-21T10:31:02.711Z,20.76
2023-03-21T10:31:32.307Z,20.97
2023-03-21T10:32:01.001Z,21.10
2023-03-21T10:32:31.066Z,21.19
2023-03-21T10:33:02.803Z,21.29
2023-03-21T10:33:33.857Z,21.29
2023-03-21T10:34:03.014Z,21.25
2023-03-21T10:34:31.758Z,21.14
2023-03-21T10:35:04.697Z,21.09
2023-03-21T10:35:48.855Z,21.01
2023-03-21T10:36:13.674Z,20.95
2023-03-21T10:36:36.971Z,20.97
2023-03-21T10:37:02.020Z,20.87
2023-03-21T10:40:15.200Z,20.88
2023-03-21T10:40:23.439Z,20.94
2023-03-21T10:40:52.545Z,20.98
2023-03-21T10:41:20.275Z,20.97
2023-03-21T10:41:59.398Z,20.92
2023-03-21T10:42:17.503Z,20.88
2023-03-21T10:42:47.243Z,20.85
2023-03-21T10:43:19.349Z,20.76
2023-03-21T10:43:49.034Z,20.77
2023-03-21T10:44:20.189Z,20.73
2023-03-21T10:44:47.768Z,20.69
2023-03-21T10:45:17.047Z,20.59
2023-03-21T10:45:55.022Z,20.50
